sensor_id;sensor_type;location;lat;lon;timestamp;P1;durP1;ratioP1;P2;durP2;ratioP2
74177;SDS011;62540;48.456;-4.456;2022-07-29T00:01:49;9.50;;;7.50;;
74177;SDS011;62540;48.456;-4.456;2022-07-29T00:04:17;9.75;;;9.25;;
74177;SDS011;62540;48.456;-4.456;2022-07-29T00:06:42;10.25;;;10.00;;
74177;SDS011;62540;48.456;-4.456;2022-07-29T00:09:08;10.50;;;9.25;;
74177;SDS011;62540;48.456;-4.456;2022-07-29T00:11:33;7.00;;;6.25;;
74177;SDS011;62540;48.456;-4.456;2022-07-29T00:13:58;9.75;;;7.75;;
74177;SDS011;62540;48.456;-4.456;2022-07-29T00:16:24;13.00;;;11.00;;
74177;SDS011;62540;48.456;-4.456;2022-07-29T00:18:49;10.00;;;8.75;;
74177;SDS011;62540;48.456;-4.456;2022-07-29T00:21:15;9.00;;;8.75;;
74177;SDS011;62540;48.456;-4.456;2022-07-29T00:23:40;14.50;;;10.00;;
74177;SDS011;62540;48.456;-4.456;2022-07-29T00:26:05;8.50;;;8.50;;
74177;SDS011;62540;48.456;-4.456;2022-07-29T00:28:31;12.75;;;11.50;;
74177;SDS011;62540;48.456;-4.456;2022-07-29T00:30:56;9.25;;;9.25;;
74177;SDS011;62540;48.456;-4.456;2022-07-29T00:33:22;14.00;;;12.25;;
74177;SDS011;62540;48.456;-4.456;2022-07-29T00:35:48;16.75;;;12.00;;
74177;SDS011;62540;48.456;-4.456;2022-07-29T00:38:15;10.50;;;9.75;;
74177;SDS011;62540;48.456;-4.456;2022-07-29T00:40:42;12.50;;;11.50;;
74177;SDS011;62540;48.456;-4.456;2022-07-29T00:43:08;12.50;;;11.75;;
74177;SDS011;62540;48.456;-4.456;2022-07-29T00:45:34;15.75;;;14.75;;
74177;SDS011;62540;48.456;-4.456;2022-07-29T00:47:59;12.50;;;12.25;;
74177;SDS011;62540;48.456;-4.456;2022-07-29T00:50:25;10.50;;;10.50;;
74177;SDS011;62540;48.456;-4.456;2022-07-29T00:52:51;13.75;;;11.50;;
74177;SDS011;62540;48.456;-4.456;2022-07-29T00:55:18;17.50;;;11.75;;
74177;SDS011;62540;48.456;-4.456;2022-07-29T00:57:44;9.25;;;8.50;;
74177;SDS011;62540;48.456;-4.456;2022-07-29T01:00:15;13.25;;;13.00;;
74177;SDS011;62540;48.456;-4.456;2022-07-29T01:02:43;11.75;;;10.75;;
74177;SDS011;62540;48.456;-4.456;2022-07-29T01:05:09;13.50;;;12.50;;
74177;SDS011;62540;48.456;-4.456;2022-07-29T01:07:36;16.00;;;13.00;;
74177;SDS011;62540;48.456;-4.456;2022-07-29T01:10:03;14.50;;;12.00;;
74177;SDS011;62540;48.456;-4.456;2022-07-29T01:12:30;13.00;;;10.25;;
74177;SDS011;62540;48.456;-4.456;2022-07-29T01:14:58;15.00;;;11.00;;
74177;SDS011;62540;48.456;-4.456;2022-07-29T01:17:29;10.75;;;9.75;;
74177;SDS011;62540;48.456;-4.456;2022-07-29T01:22:53;12.25;;;12.00;;
74177;SDS011;62540;48.456;-4.456;2022-07-29T01:31:10;11.75;;;11.75;;
74177;SDS011;62540;48.456;-4.456;2022-07-29T01:33:41;15.75;;;11.75;;
74177;SDS011;62540;48.456;-4.456;2022-07-29T01:36:14;14.75;;;12.75;;
74177;SDS011;62540;48.456;-4.456;2022-07-29T01:38:45;15.50;;;13.50;;
74177;SDS011;62540;48.456;-4.456;2022-07-29T01:41:17;19.25;;;15.50;;
74177;SDS011;62540;48.456;-4.456;2022-07-29T01:43:56;23.50;;;16.75;;
74177;SDS011;62540;48.456;-4.456;2022-07-29T01:46:25;14.50;;;12.50;;
74177;SDS011;62540;48.456;-4.456;2022-07-29T01:49:10;15.50;;;14.50;;
74177;SDS011;62540;48.456;-4.456;2022-07-29T01:51:41;13.00;;;11.50;;
74177;SDS011;62540;48.456;-4.456;2022-07-29T01:54:20;15.50;;;15.25;;
74177;SDS011;62540;48.456;-4.456;2022-07-29T01:56:51;14.50;;;14.25;;
74177;SDS011;62540;48.456;-4.456;2022-07-29T01:59:20;15.00;;;14.50;;
74177;SDS011;62540;48.456;-4.456;2022-07-29T02:01:46;20.00;;;18.25;;
74177;SDS011;62540;48.456;-4.456;2022-07-29T02:04:15;22.50;;;17.50;;
74177;SDS011;62540;48.456;-4.456;2022-07-29T02:06:43;20.00;;;19.00;;
74177;SDS011;62540;48.456;-4.456;2022-07-29T02:09:11;18.00;;;15.75;;
74177;SDS011;62540;48.456;-4.456;2022-07-29T02:11:38;19.75;;;17.75;;
74177;SDS011;62540;48.456;-4.456;2022-07-29T02:14:05;10.75;;;9.50;;
74177;SDS011;62540;48.456;-4.456;2022-07-29T02:16:32;16.75;;;16.00;;
74177;SDS011;62540;48.456;-4.456;2022-07-29T02:19:00;19.50;;;16.50;;
74177;SDS011;62540;48.456;-4.456;2022-07-29T02:21:27;26.00;;;23.00;;
74177;SDS011;62540;48.456;-4.456;2022-07-29T02:23:55;22.50;;;21.50;;
74177;SDS011;62540;48.456;-4.456;2022-07-29T02:26:24;15.50;;;15.00;;
74177;SDS011;62540;48.456;-4.456;2022-07-29T02:28:52;22.75;;;20.75;;
74177;SDS011;62540;48.456;-4.456;2022-07-29T02:31:21;17.25;;;16.00;;
74177;SDS011;62540;48.456;-4.456;2022-07-29T02:33:49;18.00;;;16.75;;
74177;SDS011;62540;48.456;-4.456;2022-07-29T02:36:16;18.00;;;16.75;;
74177;SDS011;62540;48.456;-4.456;2022-07-29T02:38:45;19.50;;;16.50;;
74177;SDS011;62540;48.456;-4.456;2022-07-29T02:41:16;15.00;;;15.00;;
74177;SDS011;62540;48.456;-4.456;2022-07-29T02:43:45;17.75;;;16.50;;
74177;SDS011;62540;48.456;-4.456;2022-07-29T02:46:15;18.00;;;15.75;;
74177;SDS011;62540;48.456;-4.456;2022-07-29T02:48:48;19.75;;;18.75;;
74177;SDS011;62540;48.456;-4.456;2022-07-29T02:51:19;16.75;;;15.75;;
74177;SDS011;62540;48.456;-4.456;2022-07-29T02:53:51;17.00;;;16.25;;
74177;SDS011;62540;48.456;-4.456;2022-07-29T02:56:20;18.50;;;14.00;;
74177;SDS011;62540;48.456;-4.456;2022-07-29T02:58:57;17.00;;;15.75;;
74177;SDS011;62540;48.456;-4.456;2022-07-29T03:01:24;15.00;;;14.25;;
74177;SDS011;62540;48.456;-4.456;2022-07-29T03:03:53;16.50;;;14.50;;
74177;SDS011;62540;48.456;-4.456;2022-07-29T03:06:23;14.25;;;14.25;;
74177;SDS011;62540;48.456;-4.456;2022-07-29T03:08:50;15.50;;;15.25;;
74177;SDS011;62540;48.456;-4.456;2022-07-29T03:11:16;18.50;;;15.00;;
74177;SDS011;62540;48.456;-4.456;2022-07-29T03:13:43;15.50;;;14.25;;
74177;SDS011;62540;48.456;-4.456;2022-07-29T03:16:10;17.00;;;16.25;;
74177;SDS011;62540;48.456;-4.456;2022-07-29T03:18:37;20.00;;;15.75;;
74177;SDS011;62540;48.456;-4.456;2022-07-29T03:21:03;19.50;;;16.00;;
74177;SDS011;62540;48.456;-4.456;2022-07-29T03:23:29;19.50;;;14.25;;
74177;SDS011;62540;48.456;-4.456;2022-07-29T03:25:55;15.25;;;14.25;;
74177;SDS011;62540;48.456;-4.456;2022-07-29T03:28:21;16.25;;;14.50;;
74177;SDS011;62540;48.456;-4.456;2022-07-29T03:30:47;16.00;;;13.75;;
74177;SDS011;62540;48.456;-4.456;2022-07-29T03:33:13;16.25;;;13.00;;
74177;SDS011;62540;48.456;-4.456;2022-07-29T03:35:38;14.00;;;13.00;;
74177;SDS011;62540;48.456;-4.456;2022-07-29T03:38:04;12.25;;;10.75;;
74177;SDS011;62540;48.456;-4.456;2022-07-29T03:43:05;12.75;;;10.75;;
74177;SDS011;62540;48.456;-4.456;2022-07-29T03:45:33;18.25;;;16.25;;
74177;SDS011;62540;48.456;-4.456;2022-07-29T03:48:01;20.00;;;16.50;;
74177;SDS011;62540;48.456;-4.456;2022-07-29T03:50:33;17.00;;;16.25;;
74177;SDS011;62540;48.456;-4.456;2022-07-29T03:53:00;20.75;;;17.25;;
74177;SDS011;62540;48.456;-4.456;2022-07-29T03:55:28;17.25;;;15.25;;
74177;SDS011;62540;48.456;-4.456;2022-07-29T03:57:56;15.25;;;13.00;;
74177;SDS011;62540;48.456;-4.456;2022-07-29T04:00:23;16.75;;;14.75;;
74177;SDS011;62540;48.456;-4.456;2022-07-29T04:02:50;17.00;;;14.75;;
74177;SDS011;62540;48.456;-4.456;2022-07-29T04:05:16;21.50;;;20.00;;
74177;SDS011;62540;48.456;-4.456;2022-07-29T04:07:45;16.00;;;15.25;;
74177;SDS011;62540;48.456;-4.456;2022-07-29T04:10:14;14.75;;;14.25;;
74177;SDS011;62540;48.456;-4.456;2022-07-29T04:12:43;17.50;;;15.25;;
74177;SDS011;62540;48.456;-4.456;2022-07-29T04:15:09;18.00;;;16.50;;
74177;SDS011;62540;48.456;-4.456;2022-07-29T04:17:35;22.00;;;22.00;;
74177;SDS011;62540;48.456;-4.456;2022-07-29T04:20:01;19.75;;;18.25;;
74177;SDS011;62540;48.456;-4.456;2022-07-29T04:22:26;21.75;;;18.50;;
74177;SDS011;62540;48.456;-4.456;2022-07-29T04:24:52;22.00;;;21.25;;
74177;SDS011;62540;48.456;-4.456;2022-07-29T04:27:17;18.00;;;15.75;;
74177;SDS011;62540;48.456;-4.456;2022-07-29T04:29:43;15.25;;;13.75;;
74177;SDS011;62540;48.456;-4.456;2022-07-29T04:32:08;20.50;;;18.00;;
74177;SDS011;62540;48.456;-4.456;2022-07-29T04:34:34;16.00;;;16.00;;
74177;SDS011;62540;48.456;-4.456;2022-07-29T04:36:59;21.25;;;19.25;;
74177;SDS011;62540;48.456;-4.456;2022-07-29T04:39:25;16.00;;;15.00;;
74177;SDS011;62540;48.456;-4.456;2022-07-29T04:41:50;20.75;;;16.25;;
74177;SDS011;62540;48.456;-4.456;2022-07-29T04:44:16;15.00;;;15.00;;
74177;SDS011;62540;48.456;-4.456;2022-07-29T04:46:41;15.75;;;14.25;;
74177;SDS011;62540;48.456;-4.456;2022-07-29T04:49:07;16.00;;;13.00;;
74177;SDS011;62540;48.456;-4.456;2022-07-29T04:51:33;13.25;;;12.50;;
74177;SDS011;62540;48.456;-4.456;2022-07-29T04:53:58;17.75;;;15.00;;
74177;SDS011;62540;48.456;-4.456;2022-07-29T04:56:24;15.75;;;13.75;;
74177;SDS011;62540;48.456;-4.456;2022-07-29T04:58:49;13.75;;;12.75;;
74177;SDS011;62540;48.456;-4.456;2022-07-29T05:01:15;16.00;;;13.25;;
74177;SDS011;62540;48.456;-4.456;2022-07-29T05:03:40;12.75;;;12.75;;
74177;SDS011;62540;48.456;-4.456;2022-07-29T05:06:06;15.25;;;14.50;;
74177;SDS011;62540;48.456;-4.456;2022-07-29T05:08:31;16.25;;;15.00;;
74177;SDS011;62540;48.456;-4.456;2022-07-29T05:10:56;16.00;;;14.75;;
74177;SDS011;62540;48.456;-4.456;2022-07-29T05:13:22;14.50;;;14.25;;
74177;SDS011;62540;48.456;-4.456;2022-07-29T05:15:47;10.00;;;10.00;;
74177;SDS011;62540;48.456;-4.456;2022-07-29T05:18:13;14.50;;;12.75;;
74177;SDS011;62540;48.456;-4.456;2022-07-29T05:20:39;13.50;;;12.00;;
74177;SDS011;62540;48.456;-4.456;2022-07-29T05:23:04;16.75;;;16.00;;
74177;SDS011;62540;48.456;-4.456;2022-07-29T05:25:30;14.00;;;13.25;;
74177;SDS011;62540;48.456;-4.456;2022-07-29T05:27:56;16.00;;;13.50;;
74177;SDS011;62540;48.456;-4.456;2022-07-29T05:30:21;15.75;;;12.25;;
74177;SDS011;62540;48.456;-4.456;2022-07-29T05:32:47;15.00;;;14.75;;
74177;SDS011;62540;48.456;-4.456;2022-07-29T05:35:13;16.00;;;12.00;;
74177;SDS011;62540;48.456;-4.456;2022-07-29T05:37:39;14.25;;;12.75;;
74177;SDS011;62540;48.456;-4.456;2022-07-29T05:40:05;18.00;;;15.75;;
74177;SDS011;62540;48.456;-4.456;2022-07-29T05:42:31;16.25;;;15.00;;
74177;SDS011;62540;48.456;-4.456;2022-07-29T05:44:57;14.00;;;12.50;;
74177;SDS011;62540;48.456;-4.456;2022-07-29T05:47:22;17.25;;;16.00;;
74177;SDS011;62540;48.456;-4.456;2022-07-29T05:49:49;14.50;;;14.00;;
74177;SDS011;62540;48.456;-4.456;2022-07-29T05:52:15;17.50;;;16.25;;
74177;SDS011;62540;48.456;-4.456;2022-07-29T05:54:41;17.50;;;15.75;;
74177;SDS011;62540;48.456;-4.456;2022-07-29T05:57:06;15.00;;;14.25;;
74177;SDS011;62540;48.456;-4.456;2022-07-29T05:59:38;17.25;;;16.00;;
74177;SDS011;62540;48.456;-4.456;2022-07-29T06:02:03;20.75;;;17.75;;
74177;SDS011;62540;48.456;-4.456;2022-07-29T06:04:30;16.75;;;13.75;;
74177;SDS011;62540;48.456;-4.456;2022-07-29T06:06:56;17.75;;;14.75;;
74177;SDS011;62540;48.456;-4.456;2022-07-29T06:09:21;19.00;;;17.00;;
74177;SDS011;62540;48.456;-4.456;2022-07-29T06:11:47;16.75;;;14.50;;
74177;SDS011;62540;48.456;-4.456;2022-07-29T06:14:13;14.25;;;13.00;;
74177;SDS011;62540;48.456;-4.456;2022-07-29T06:16:39;10.50;;;10.50;;
74177;SDS011;62540;48.456;-4.456;2022-07-29T06:19:04;18.00;;;15.50;;
74177;SDS011;62540;48.456;-4.456;2022-07-29T06:21:29;15.00;;;12.75;;
74177;SDS011;62540;48.456;-4.456;2022-07-29T06:23:55;17.25;;;16.00;;
74177;SDS011;62540;48.456;-4.456;2022-07-29T06:26:20;11.25;;;10.75;;
74177;SDS011;62540;48.456;-4.456;2022-07-29T06:28:45;12.25;;;10.75;;
74177;SDS011;62540;48.456;-4.456;2022-07-29T06:31:11;17.00;;;16.25;;
74177;SDS011;62540;48.456;-4.456;2022-07-29T06:33:36;17.00;;;15.50;;
74177;SDS011;62540;48.456;-4.456;2022-07-29T06:36:03;17.00;;;15.75;;
74177;SDS011;62540;48.456;-4.456;2022-07-29T06:38:29;16.75;;;15.25;;
74177;SDS011;62540;48.456;-4.456;2022-07-29T06:40:55;16.00;;;15.50;;
74177;SDS011;62540;48.456;-4.456;2022-07-29T06:43:34;20.75;;;17.50;;
74177;SDS011;62540;48.456;-4.456;2022-07-29T06:46:11;20.25;;;18.00;;
74177;SDS011;62540;48.456;-4.456;2022-07-29T06:48:38;13.75;;;13.75;;
74177;SDS011;62540;48.456;-4.456;2022-07-29T06:51:05;26.00;;;23.75;;
74177;SDS011;62540;48.456;-4.456;2022-07-29T06:53:31;24.50;;;23.75;;
74177;SDS011;62540;48.456;-4.456;2022-07-29T06:55:58;23.25;;;19.75;;
74177;SDS011;62540;48.456;-4.456;2022-07-29T06:58:25;21.25;;;18.50;;
74177;SDS011;62540;48.456;-4.456;2022-07-29T07:00:51;21.25;;;19.75;;
74177;SDS011;62540;48.456;-4.456;2022-07-29T07:03:17;25.25;;;20.25;;
74177;SDS011;62540;48.456;-4.456;2022-07-29T07:05:43;25.25;;;23.75;;
74177;SDS011;62540;48.456;-4.456;2022-07-29T07:08:09;20.00;;;18.50;;
74177;SDS011;62540;48.456;-4.456;2022-07-29T07:10:35;15.75;;;15.00;;
74177;SDS011;62540;48.456;-4.456;2022-07-29T07:13:00;22.25;;;17.50;;
74177;SDS011;62540;48.456;-4.456;2022-07-29T07:15:28;20.00;;;18.50;;
74177;SDS011;62540;48.456;-4.456;2022-07-29T07:17:53;20.00;;;17.75;;
74177;SDS011;62540;48.456;-4.456;2022-07-29T07:20:19;16.00;;;15.50;;
74177;SDS011;62540;48.456;-4.456;2022-07-29T07:22:44;14.75;;;13.50;;
74177;SDS011;62540;48.456;-4.456;2022-07-29T07:25:10;14.50;;;14.50;;
74177;SDS011;62540;48.456;-4.456;2022-07-29T07:27:36;20.00;;;17.25;;
74177;SDS011;62540;48.456;-4.456;2022-07-29T07:30:05;17.75;;;14.50;;
74177;SDS011;62540;48.456;-4.456;2022-07-29T07:32:32;15.50;;;14.00;;
74177;SDS011;62540;48.456;-4.456;2022-07-29T07:34:58;12.50;;;11.75;;
74177;SDS011;62540;48.456;-4.456;2022-07-29T07:37:24;15.50;;;13.75;;
74177;SDS011;62540;48.456;-4.456;2022-07-29T07:39:49;15.25;;;12.25;;
74177;SDS011;62540;48.456;-4.456;2022-07-29T07:42:16;15.00;;;13.00;;
74177;SDS011;62540;48.456;-4.456;2022-07-29T07:44:42;13.75;;;12.50;;
74177;SDS011;62540;48.456;-4.456;2022-07-29T07:47:07;14.50;;;13.00;;
74177;SDS011;62540;48.456;-4.456;2022-07-29T07:49:32;10.75;;;10.00;;
74177;SDS011;62540;48.456;-4.456;2022-07-29T07:51:58;11.00;;;10.00;;
74177;SDS011;62540;48.456;-4.456;2022-07-29T07:54:23;14.00;;;11.75;;
74177;SDS011;62540;48.456;-4.456;2022-07-29T07:56:48;12.75;;;11.00;;
74177;SDS011;62540;48.456;-4.456;2022-07-29T07:59:14;10.25;;;9.50;;
74177;SDS011;62540;48.456;-4.456;2022-07-29T08:01:40;11.00;;;10.25;;
74177;SDS011;62540;48.456;-4.456;2022-07-29T08:04:06;12.75;;;11.50;;
74177;SDS011;62540;48.456;-4.456;2022-07-29T08:06:32;10.00;;;9.00;;
74177;SDS011;62540;48.456;-4.456;2022-07-29T08:08:59;10.25;;;8.50;;
74177;SDS011;62540;48.456;-4.456;2022-07-29T08:11:25;7.00;;;7.00;;
74177;SDS011;62540;48.456;-4.456;2022-07-29T08:13:50;8.75;;;8.50;;
74177;SDS011;62540;48.456;-4.456;2022-07-29T08:16:17;7.75;;;6.75;;
74177;SDS011;62540;48.456;-4.456;2022-07-29T08:18:43;7.75;;;7.00;;
74177;SDS011;62540;48.456;-4.456;2022-07-29T08:21:09;7.25;;;6.25;;
74177;SDS011;62540;48.456;-4.456;2022-07-29T08:23:35;7.25;;;7.25;;
74177;SDS011;62540;48.456;-4.456;2022-07-29T08:26:07;8.00;;;7.50;;
74177;SDS011;62540;48.456;-4.456;2022-07-29T08:28:36;10.00;;;8.00;;
74177;SDS011;62540;48.456;-4.456;2022-07-29T08:31:05;5.25;;;4.00;;
74177;SDS011;62540;48.456;-4.456;2022-07-29T08:33:32;4.25;;;3.00;;
74177;SDS011;62540;48.456;-4.456;2022-07-29T08:35:57;3.00;;;3.00;;
74177;SDS011;62540;48.456;-4.456;2022-07-29T08:38:23;5.00;;;5.00;;
74177;SDS011;62540;48.456;-4.456;2022-07-29T08:40:51;7.00;;;5.00;;
74177;SDS011;62540;48.456;-4.456;2022-07-29T08:43:17;3.00;;;3.00;;
74177;SDS011;62540;48.456;-4.456;2022-07-29T08:45:46;5.25;;;5.00;;
74177;SDS011;62540;48.456;-4.456;2022-07-29T08:48:14;3.00;;;3.00;;
74177;SDS011;62540;48.456;-4.456;2022-07-29T08:50:41;6.00;;;5.00;;
74177;SDS011;62540;48.456;-4.456;2022-07-29T08:53:09;4.00;;;4.00;;
74177;SDS011;62540;48.456;-4.456;2022-07-29T08:55:38;3.25;;;3.25;;
74177;SDS011;62540;48.456;-4.456;2022-07-29T08:58:06;4.00;;;3.25;;
74177;SDS011;62540;48.456;-4.456;2022-07-29T09:00:32;2.25;;;2.00;;
74177;SDS011;62540;48.456;-4.456;2022-07-29T09:03:00;4.25;;;4.25;;
74177;SDS011;62540;48.456;-4.456;2022-07-29T09:05:26;5.25;;;5.25;;
74177;SDS011;62540;48.456;-4.456;2022-07-29T09:07:53;5.25;;;4.50;;
74177;SDS011;62540;48.456;-4.456;2022-07-29T09:10:18;4.00;;;4.00;;
74177;SDS011;62540;48.456;-4.456;2022-07-29T09:12:44;6.25;;;5.75;;
74177;SDS011;62540;48.456;-4.456;2022-07-29T09:15:10;4.00;;;4.00;;
74177;SDS011;62540;48.456;-4.456;2022-07-29T09:17:39;3.50;;;3.25;;
74177;SDS011;62540;48.456;-4.456;2022-07-29T09:20:14;5.00;;;3.25;;
74177;SDS011;62540;48.456;-4.456;2022-07-29T09:22:43;4.75;;;3.75;;
74177;SDS011;62540;48.456;-4.456;2022-07-29T09:25:12;4.25;;;4.25;;
74177;SDS011;62540;48.456;-4.456;2022-07-29T09:27:37;5.00;;;5.00;;
74177;SDS011;62540;48.456;-4.456;2022-07-29T09:32:31;4.00;;;4.00;;
74177;SDS011;62540;48.456;-4.456;2022-07-29T09:35:13;4.00;;;4.00;;
74177;SDS011;62540;48.456;-4.456;2022-07-29T09:37:40;4.75;;;4.75;;
74177;SDS011;62540;48.456;-4.456;2022-07-29T09:40:15;3.50;;;3.00;;
74177;SDS011;62540;48.456;-4.456;2022-07-29T09:42:42;2.25;;;2.25;;
74177;SDS011;62540;48.456;-4.456;2022-07-29T09:45:08;4.00;;;4.00;;
74177;SDS011;62540;48.456;-4.456;2022-07-29T09:47:41;1.25;;;1.25;;
74177;SDS011;62540;48.456;-4.456;2022-07-29T09:50:10;3.50;;;3.25;;
74177;SDS011;62540;48.456;-4.456;2022-07-29T09:52:44;2.75;;;2.75;;
74177;SDS011;62540;48.456;-4.456;2022-07-29T09:55:11;3.00;;;2.75;;
74177;SDS011;62540;48.456;-4.456;2022-07-29T09:57:37;3.75;;;3.00;;
74177;SDS011;62540;48.456;-4.456;2022-07-29T10:00:04;5.75;;;5.00;;
74177;SDS011;62540;48.456;-4.456;2022-07-29T10:02:34;3.00;;;2.00;;
74177;SDS011;62540;48.456;-4.456;2022-07-29T10:05:03;4.25;;;4.25;;
74177;SDS011;62540;48.456;-4.456;2022-07-29T10:07:43;3.75;;;3.25;;
74177;SDS011;62540;48.456;-4.456;2022-07-29T10:10:35;3.00;;;2.50;;
74177;SDS011;62540;48.456;-4.456;2022-07-29T10:13:05;3.00;;;2.50;;
74177;SDS011;62540;48.456;-4.456;2022-07-29T10:15:33;3.75;;;3.00;;
74177;SDS011;62540;48.456;-4.456;2022-07-29T10:18:03;3.00;;;2.00;;
74177;SDS011;62540;48.456;-4.456;2022-07-29T10:20:29;3.00;;;2.25;;
74177;SDS011;62540;48.456;-4.456;2022-07-29T10:22:55;5.00;;;4.75;;
74177;SDS011;62540;48.456;-4.456;2022-07-29T10:25:20;4.00;;;4.00;;
74177;SDS011;62540;48.456;-4.456;2022-07-29T10:27:47;4.00;;;4.00;;
74177;SDS011;62540;48.456;-4.456;2022-07-29T10:30:15;3.00;;;3.00;;
74177;SDS011;62540;48.456;-4.456;2022-07-29T10:46:25;3.00;;;3.00;;
74177;SDS011;62540;48.456;-4.456;2022-07-29T10:49:05;3.50;;;3.00;;
74177;SDS011;62540;48.456;-4.456;2022-07-29T10:51:55;2.50;;;2.00;;
74177;SDS011;62540;48.456;-4.456;2022-07-29T10:57:12;4.50;;;4.00;;
74177;SDS011;62540;48.456;-4.456;2022-07-29T10:59:50;2.75;;;2.75;;
74177;SDS011;62540;48.456;-4.456;2022-07-29T11:07:31;2.75;;;2.75;;
74177;SDS011;62540;48.456;-4.456;2022-07-29T11:12:54;2.00;;;2.00;;
74177;SDS011;62540;48.456;-4.456;2022-07-29T11:15:21;0.75;;;0.75;;
74177;SDS011;62540;48.456;-4.456;2022-07-29T11:23:30;3.00;;;3.00;;
74177;SDS011;62540;48.456;-4.456;2022-07-29T11:39:30;3.00;;;3.00;;
74177;SDS011;62540;48.456;-4.456;2022-07-29T11:47:27;3.25;;;3.25;;
74177;SDS011;62540;48.456;-4.456;2022-07-29T11:49:54;3.50;;;3.25;;
74177;SDS011;62540;48.456;-4.456;2022-07-29T11:52:22;3.00;;;3.00;;
74177;SDS011;62540;48.456;-4.456;2022-07-29T11:54:49;2.00;;;2.00;;
74177;SDS011;62540;48.456;-4.456;2022-07-29T11:57:16;2.00;;;2.00;;
74177;SDS011;62540;48.456;-4.456;2022-07-29T11:59:43;1.25;;;1.25;;
74177;SDS011;62540;48.456;-4.456;2022-07-29T12:02:11;3.00;;;2.00;;
74177;SDS011;62540;48.456;-4.456;2022-07-29T12:04:54;1.75;;;1.75;;
74177;SDS011;62540;48.456;-4.456;2022-07-29T12:07:30;2.00;;;2.00;;
74177;SDS011;62540;48.456;-4.456;2022-07-29T12:09:57;2.00;;;1.25;;
74177;SDS011;62540;48.456;-4.456;2022-07-29T12:12:23;4.00;;;3.00;;
74177;SDS011;62540;48.456;-4.456;2022-07-29T12:14:50;2.75;;;2.75;;
74177;SDS011;62540;48.456;-4.456;2022-07-29T12:17:25;1.50;;;1.50;;
74177;SDS011;62540;48.456;-4.456;2022-07-29T12:19:59;2.50;;;2.50;;
74177;SDS011;62540;48.456;-4.456;2022-07-29T12:22:28;2.75;;;2.00;;
74177;SDS011;62540;48.456;-4.456;2022-07-29T12:24:55;3.00;;;3.00;;
74177;SDS011;62540;48.456;-4.456;2022-07-29T12:27:25;2.00;;;2.00;;
74177;SDS011;62540;48.456;-4.456;2022-07-29T12:32:35;2.75;;;2.75;;
74177;SDS011;62540;48.456;-4.456;2022-07-29T12:35:06;3.50;;;3.50;;
74177;SDS011;62540;48.456;-4.456;2022-07-29T12:37:36;4.75;;;3.75;;
74177;SDS011;62540;48.456;-4.456;2022-07-29T12:40:04;3.50;;;3.25;;
74177;SDS011;62540;48.456;-4.456;2022-07-29T12:42:31;6.00;;;4.00;;
74177;SDS011;62540;48.456;-4.456;2022-07-29T12:44:56;2.25;;;2.25;;
74177;SDS011;62540;48.456;-4.456;2022-07-29T12:47:22;5.75;;;4.75;;
74177;SDS011;62540;48.456;-4.456;2022-07-29T12:49:49;4.00;;;4.00;;
74177;SDS011;62540;48.456;-4.456;2022-07-29T12:52:31;4.00;;;3.25;;
74177;SDS011;62540;48.456;-4.456;2022-07-29T12:54:58;3.00;;;3.00;;
74177;SDS011;62540;48.456;-4.456;2022-07-29T12:57:24;3.00;;;3.00;;
74177;SDS011;62540;48.456;-4.456;2022-07-29T13:00:06;4.75;;;3.75;;
74177;SDS011;62540;48.456;-4.456;2022-07-29T13:02:36;3.25;;;3.25;;
74177;SDS011;62540;48.456;-4.456;2022-07-29T13:05:03;3.25;;;3.00;;
74177;SDS011;62540;48.456;-4.456;2022-07-29T13:07:30;5.00;;;4.25;;
74177;SDS011;62540;48.456;-4.456;2022-07-29T13:13:01;3.25;;;3.00;;
74177;SDS011;62540;48.456;-4.456;2022-07-29T13:15:28;4.00;;;4.00;;
74177;SDS011;62540;48.456;-4.456;2022-07-29T13:17:53;4.50;;;4.00;;
74177;SDS011;62540;48.456;-4.456;2022-07-29T13:20:23;4.25;;;4.00;;
74177;SDS011;62540;48.456;-4.456;2022-07-29T13:22:49;4.00;;;4.00;;
74177;SDS011;62540;48.456;-4.456;2022-07-29T13:25:15;4.00;;;4.00;;
74177;SDS011;62540;48.456;-4.456;2022-07-29T13:27:49;4.00;;;4.00;;
74177;SDS011;62540;48.456;-4.456;2022-07-29T13:30:15;4.25;;;4.00;;
74177;SDS011;62540;48.456;-4.456;2022-07-29T13:32:40;4.00;;;4.00;;
74177;SDS011;62540;48.456;-4.456;2022-07-29T13:35:06;3.00;;;3.00;;
74177;SDS011;62540;48.456;-4.456;2022-07-29T13:37:33;5.00;;;4.25;;
74177;SDS011;62540;48.456;-4.456;2022-07-29T13:40:00;4.00;;;3.00;;
74177;SDS011;62540;48.456;-4.456;2022-07-29T13:42:28;4.00;;;4.00;;
74177;SDS011;62540;48.456;-4.456;2022-07-29T13:44:53;3.25;;;3.25;;
74177;SDS011;62540;48.456;-4.456;2022-07-29T13:47:20;3.50;;;3.00;;
74177;SDS011;62540;48.456;-4.456;2022-07-29T13:49:46;3.50;;;3.50;;
74177;SDS011;62540;48.456;-4.456;2022-07-29T13:52:12;4.00;;;3.00;;
74177;SDS011;62540;48.456;-4.456;2022-07-29T13:54:38;3.00;;;3.00;;
74177;SDS011;62540;48.456;-4.456;2022-07-29T13:57:04;3.25;;;3.25;;
74177;SDS011;62540;48.456;-4.456;2022-07-29T13:59:30;2.00;;;2.00;;
74177;SDS011;62540;48.456;-4.456;2022-07-29T14:01:56;4.00;;;3.25;;
74177;SDS011;62540;48.456;-4.456;2022-07-29T14:04:21;5.00;;;4.00;;
74177;SDS011;62540;48.456;-4.456;2022-07-29T14:06:48;2.25;;;2.25;;
74177;SDS011;62540;48.456;-4.456;2022-07-29T14:09:14;4.00;;;4.00;;
74177;SDS011;62540;48.456;-4.456;2022-07-29T14:11:39;2.50;;;2.50;;
74177;SDS011;62540;48.456;-4.456;2022-07-29T14:14:05;3.00;;;3.00;;
74177;SDS011;62540;48.456;-4.456;2022-07-29T14:16:30;5.00;;;4.00;;
74177;SDS011;62540;48.456;-4.456;2022-07-29T14:18:56;3.50;;;3.25;;
74177;SDS011;62540;48.456;-4.456;2022-07-29T14:21:21;3.00;;;3.00;;
74177;SDS011;62540;48.456;-4.456;2022-07-29T14:23:47;3.50;;;3.00;;
74177;SDS011;62540;48.456;-4.456;2022-07-29T14:26:12;3.00;;;2.50;;
74177;SDS011;62540;48.456;-4.456;2022-07-29T14:28:38;3.50;;;2.50;;
74177;SDS011;62540;48.456;-4.456;2022-07-29T14:31:03;2.00;;;2.00;;
74177;SDS011;62540;48.456;-4.456;2022-07-29T14:33:29;3.00;;;3.00;;
74177;SDS011;62540;48.456;-4.456;2022-07-29T14:35:54;4.00;;;4.00;;
74177;SDS011;62540;48.456;-4.456;2022-07-29T14:38:19;4.75;;;4.00;;
74177;SDS011;62540;48.456;-4.456;2022-07-29T14:40:45;2.00;;;2.00;;
74177;SDS011;62540;48.456;-4.456;2022-07-29T14:43:11;2.00;;;2.00;;
74177;SDS011;62540;48.456;-4.456;2022-07-29T14:45:38;2.00;;;2.00;;
74177;SDS011;62540;48.456;-4.456;2022-07-29T14:48:04;2.50;;;2.00;;
74177;SDS011;62540;48.456;-4.456;2022-07-29T14:50:30;1.00;;;1.00;;
74177;SDS011;62540;48.456;-4.456;2022-07-29T14:52:55;2.50;;;2.50;;
74177;SDS011;62540;48.456;-4.456;2022-07-29T14:55:21;2.00;;;2.00;;
74177;SDS011;62540;48.456;-4.456;2022-07-29T14:57:46;2.25;;;2.25;;
74177;SDS011;62540;48.456;-4.456;2022-07-29T15:00:12;3.25;;;2.00;;
74177;SDS011;62540;48.456;-4.456;2022-07-29T15:02:38;2.00;;;2.00;;
74177;SDS011;62540;48.456;-4.456;2022-07-29T15:05:04;2.00;;;2.00;;
74177;SDS011;62540;48.456;-4.456;2022-07-29T15:07:30;1.75;;;1.75;;
74177;SDS011;62540;48.456;-4.456;2022-07-29T15:09:55;2.00;;;1.25;;
74177;SDS011;62540;48.456;-4.456;2022-07-29T15:12:20;4.25;;;2.00;;
74177;SDS011;62540;48.456;-4.456;2022-07-29T15:14:46;2.00;;;2.00;;
74177;SDS011;62540;48.456;-4.456;2022-07-29T15:17:11;2.50;;;2.00;;
74177;SDS011;62540;48.456;-4.456;2022-07-29T15:19:37;2.00;;;2.00;;
74177;SDS011;62540;48.456;-4.456;2022-07-29T15:22:02;3.25;;;3.25;;
74177;SDS011;62540;48.456;-4.456;2022-07-29T15:24:29;3.00;;;2.50;;
74177;SDS011;62540;48.456;-4.456;2022-07-29T15:26:55;3.50;;;3.00;;
74177;SDS011;62540;48.456;-4.456;2022-07-29T15:29:20;2.50;;;2.25;;
74177;SDS011;62540;48.456;-4.456;2022-07-29T15:31:46;3.00;;;3.00;;